Alloy, West Virginia
Current Conditions -  °F | °C
As of 5:54 PM on Tuesday 27 Jan 2015 (Local Time) from KCRW Reporting Station
Light Snow Light Snow  
Wind Chill: 17°   Ceiling: 2900
Heat Index: 24°   Visibility: 9mi
Dew Point: 14°   Wind: 6mph
Humidity: 65%   Direction: 310°NW
Pressure: 30.09"   Gusts: NA
Location:  38.14°N, 81.27°W
Report Text: KCRW 272254Z 31005KT 9SM -SN OVC029 M04/M10 A3009 RMK AO2 SLP201 P0000 T10441100
Loading
Personal Weather Stations






























Interactive Weather Map New forecast layout! Learn more

10-Day Weather Forecast

Advertisements
Track Severe Weather on mobile